createdAt,value
2022-10-08T00:09:29.277Z,84.60
2022-10-08T00:19:33.839Z,85.43
2022-10-08T00:29:37.601Z,85.32
2022-10-08T00:39:41.791Z,85.38
2022-10-08T00:49:51.695Z,85.82
2022-10-08T00:59:56.820Z,85.60
2022-10-08T01:10:23.025Z,84.40
2022-10-08T01:20:32.683Z,84.84
2022-10-08T01:30:40.708Z,85.03
2022-10-08T01:40:47.583Z,85.65
2022-10-08T01:50:51.248Z,85.55
2022-10-08T02:00:57.291Z,85.22
2022-10-08T02:11:01.052Z,84.62
2022-10-08T02:21:34.797Z,84.13
2022-10-08T02:31:42.064Z,84.43
2022-10-08T02:41:52.359Z,84.61
2022-10-08T02:52:02.378Z,84.76
2022-10-08T03:02:06.691Z,84.39
2022-10-08T03:12:10.824Z,84.17
2022-10-08T03:22:14.489Z,83.91
2022-10-08T03:32:18.051Z,83.42
2022-10-08T03:42:21.718Z,83.84
2022-10-08T03:52:25.397Z,84.24
2022-10-08T04:02:29.219Z,83.92
2022-10-08T04:12:32.916Z,83.71
2022-10-08T04:22:36.405Z,84.37
2022-10-08T04:32:40.270Z,84.24
2022-10-08T04:42:44.692Z,84.63
2022-10-08T04:52:49.443Z,85.22
2022-10-08T05:02:53.752Z,85.38
2022-10-08T05:12:57.583Z,85.27
2022-10-08T05:23:01.567Z,85.38
2022-10-08T05:33:05.435Z,84.71
2022-10-08T05:43:09.417Z,83.90
2022-10-08T05:53:13.420Z,83.68
2022-10-08T06:03:17.160Z,83.92
2022-10-08T06:13:22.130Z,83.96
2022-10-08T06:23:25.922Z,84.69
2022-10-08T06:33:30.383Z,85.22
2022-10-08T06:43:34.766Z,85.03
2022-10-08T06:53:39.680Z,83.03
2022-10-08T07:03:44.585Z,81.10
2022-10-08T07:13:48.844Z,79.52
2022-10-08T07:23:54.398Z,78.39
2022-10-08T07:34:00.361Z,77.68
2022-10-08T07:44:06.066Z,76.87
2022-10-08T07:54:14.951Z,76.75
2022-10-08T08:04:18.727Z,76.67
2022-10-08T08:14:22.591Z,76.86
2022-10-08T08:24:26.057Z,76.71
2022-10-08T08:34:30.842Z,76.58
2022-10-08T08:44:38.908Z,76.77
2022-10-08T08:54:46.674Z,76.16
2022-10-08T09:04:57.488Z,75.16
2022-10-08T09:15:02.388Z,74.63
2022-10-08T09:25:20.815Z,74.32
2022-10-08T09:35:25.802Z,73.09
2022-10-08T09:45:39.274Z,72.18
2022-10-08T09:55:52.458Z,71.09
2022-10-08T10:05:59.597Z,70.33
2022-10-08T10:16:26.350Z,69.42
2022-10-08T10:26:36.324Z,68.48
2022-10-08T10:37:02.699Z,66.88
2022-10-08T10:47:09.539Z,66.45
2022-10-08T10:57:35.508Z,65.48
2022-10-08T11:08:08.067Z,64.66
2022-10-08T11:18:24.316Z,62.92
2022-10-08T11:29:01.334Z,61.97
2022-10-08T11:39:19.404Z,61.17
2022-10-08T11:49:25.684Z,60.92
2022-10-08T11:59:37.174Z,59.50
2022-10-08T12:10:05.520Z,59.47
2022-10-08T12:20:23.321Z,59.43
2022-10-08T12:30:46.810Z,58.45
2022-10-08T12:41:01.133Z,57.84
2022-10-08T12:51:22.212Z,58.86
2022-10-08T13:01:26.979Z,58.35
2022-10-08T13:11:31.026Z,58.92
2022-10-08T13:21:38.255Z,58.29
2022-10-08T13:31:42.243Z,58.66
2022-10-08T13:41:52.435Z,58.76
2022-10-08T13:51:59.436Z,59.08
2022-10-08T14:02:03.950Z,59.16
2022-10-08T14:12:09.685Z,59.14
2022-10-08T14:22:15.062Z,60.05
2022-10-08T14:32:18.905Z,60.41
2022-10-08T14:42:22.462Z,60.97
2022-10-08T14:52:26.591Z,61.85
2022-10-08T15:02:30.717Z,62.78
2022-10-08T15:12:35.535Z,63.77
2022-10-08T15:22:39.487Z,64.27
2022-10-08T15:32:43.357Z,65.39
2022-10-08T15:42:52.790Z,66.96
2022-10-08T15:52:57.068Z,68.24
2022-10-08T16:03:01.001Z,69.25
2022-10-08T16:13:05.185Z,70.53
2022-10-08T16:23:09.885Z,71.47
2022-10-08T16:33:13.958Z,72.30
2022-10-08T16:43:17.708Z,73.26
2022-10-08T16:53:21.599Z,74.25
2022-10-08T17:03:25.353Z,74.95
2022-10-08T17:13:29.238Z,75.68
2022-10-08T17:23:37.396Z,76.22
2022-10-08T17:33:43.231Z,76.50
2022-10-08T17:43:48.642Z,76.44
2022-10-08T17:53:54.837Z,76.68
2022-10-08T18:04:04.986Z,77.12
2022-10-08T18:14:09.224Z,77.35
2022-10-08T18:24:14.332Z,77.25
2022-10-08T18:34:19.291Z,77.20
2022-10-08T18:44:25.951Z,77.91
2022-10-08T18:54:33.310Z,78.17
2022-10-08T19:04:40.564Z,78.20
2022-10-08T19:14:45.027Z,78.98
2022-10-08T19:24:49.632Z,79.70
2022-10-08T19:34:54.164Z,79.72
2022-10-08T19:44:59.121Z,80.05
2022-10-08T19:55:06.285Z,80.06
2022-10-08T20:05:10.475Z,79.58
2022-10-08T20:15:14.602Z,79.70
2022-10-08T20:25:20.838Z,80.32
2022-10-08T20:35:24.817Z,81.07
2022-10-08T20:45:28.894Z,82.14
2022-10-08T20:55:32.864Z,83.16
2022-10-08T21:05:43.387Z,83.72
2022-10-08T21:15:49.174Z,84.13
2022-10-08T21:26:14.673Z,83.84
2022-10-08T21:36:27.431Z,83.39
2022-10-08T21:46:34.317Z,83.65
2022-10-08T21:56:39.835Z,83.78
2022-10-08T22:06:46.667Z,83.60
2022-10-08T22:16:51.007Z,83.42
2022-10-08T22:26:54.882Z,83.07
2022-10-08T22:36:58.793Z,83.72
2022-10-08T22:47:02.535Z,83.90
2022-10-08T22:57:06.264Z,83.81
2022-10-08T23:07:10.039Z,83.81
2022-10-08T23:17:13.709Z,84.14
2022-10-08T23:27:17.186Z,84.55
2022-10-08T23:37:20.644Z,85.11
2022-10-08T23:47:24.507Z,85.60
2022-10-08T23:57:28.171Z,85.12
